Garwin, Iowa
Current Conditions -  °F | °C
As of 10:53 AM on Thursday 18 Dec 2014 (Local Time) from KMIW Reporting Station
Overcast Overcast  
Wind Chill: -6°   Ceiling: 9000
Heat Index: -6°   Visibility: 8mi
Dew Point: -8°   Wind: 0mph
Humidity: 85%   Direction: NA
Pressure: 30.28"   Gusts: NA
Location:  42.09°N, 92.68°W
Report Text: KMIW 181653Z AUTO 00000KT 8SM OVC090 M06/M08 A3028 RMK AO2 SLP272 T10611083
Loading
Personal Weather Stations






























Interactive Weather Map New forecast layout! Learn more

10-Day Weather Forecast

Advertisements
Track Severe Weather on mobile